PWSweather.com
Personal Weather Stations
Station Observations
WX18385
Broadalbin, NY

Broadalbin, NY

Lat: 43.081, Lon: -74.123

Elevation: -10000

Station Type:

Latest ConditionsUpdated 10:25:00 PM EST Friday, Jan 17, 2020
Currently Today's Max Today's Min Today's Average
Temperature 4.5°F-15.3°C 15.8°F-9.0°C 3.4°F-15.9°C 9.4°F-12.6°C
Dew Point -2.2°F-19.0°C 8.7°F-12.9°C -6.7°F-21.5°C -1.5°F-18.6°C
Winds Calm Calm 10.0 mph -16.1 kmh - - 3.0 mph 4.8 kmh
Wind Gusts 1.0 mph1.6 kmh 11.0 mph17.7 kmh - -
Humidity 73% 78% 39% 61%
Pressure 30.73 in1040.6 mb 30.74 in1041.0 mb 30.33 in1027.1 mb -
Hour Temp Dew Point Humidity Winds Wind Gusts Pressure Precip Precip Rate Daily Precip Total
10:25 PM 4.5°F-15.3°C -2.2°F-19.0°C 73% Calm Calm 1.0 mph1.6 kmh 30.73 in1040.6 mb 0.00 in0.0 mm 0.00 in0.0 mm 0.00 in0.0 mm
10:20 PM 4.3°F-15.4°C -2.4°F-19.1°C 73% Calm Calm -- 30.73 in1040.6 mb 0.00 in0.0 mm 0.00 in0.0 mm 0.00 in0.0 mm
10:15 PM 4.1°F-15.5°C -1.5°F-18.6°C 77% Calm Calm -- 30.73 in1040.6 mb 0.00 in0.0 mm 0.00 in0.0 mm 0.00 in0.0 mm
10:10 PM 3.6°F-15.8°C -2.0°F-18.9°C 77% Calm Calm 2.0 mph3.2 kmh 30.73 in1040.6 mb 0.00 in0.0 mm 0.00 in0.0 mm 0.00 in0.0 mm
10:05 PM 3.6°F-15.8°C -1.7°F-18.7°C 78% Calm Calm 1.0 mph1.6 kmh 30.73 in1040.6 mb 0.00 in0.0 mm 0.00 in0.0 mm 0.00 in0.0 mm
10:00 PM 3.9°F-15.6°C -1.7°F-18.7°C 77% Calm Calm -- 30.72 in1040.3 mb 0.00 in0.0 mm 0.00 in0.0 mm 0.00 in0.0 mm
09:55 PM 3.4°F-15.9°C -2.7°F-19.3°C 75% 1.0 mph W1.6 kmh W 1.0 mph1.6 kmh 30.72 in1040.3 mb 0.00 in0.0 mm 0.00 in0.0 mm 0.00 in0.0 mm
09:50 PM 3.6°F-15.8°C -2.8°F-19.3°C 74% 1.0 mph SW1.6 kmh SW 1.0 mph1.6 kmh 30.72 in1040.3 mb 0.00 in0.0 mm 0.00 in0.0 mm 0.00 in0.0 mm
09:45 PM 4.5°F-15.3°C -2.5°F-19.2°C 72% Calm Calm -- 30.72 in1040.3 mb 0.00 in0.0 mm 0.00 in0.0 mm 0.00 in0.0 mm
09:40 PM 4.3°F-15.4°C -2.1°F-18.9°C 74% Calm Calm -- 30.72 in1040.3 mb 0.00 in0.0 mm 0.00 in0.0 mm 0.00 in0.0 mm
09:35 PM 3.7°F-15.7°C -3.0°F-19.4°C 73% Calm Calm 1.0 mph1.6 kmh 30.72 in1040.3 mb 0.00 in0.0 mm 0.00 in0.0 mm 0.00 in0.0 mm
09:30 PM 3.9°F-15.6°C -3.4°F-19.7°C 71% Calm Calm -- 30.72 in1040.3 mb 0.00 in0.0 mm 0.00 in0.0 mm 0.00 in0.0 mm
09:25 PM 4.3°F-15.4°C -3.9°F-19.9°C 68% Calm Calm -- 30.72 in1040.3 mb 0.00 in0.0 mm 0.00 in0.0 mm 0.00 in0.0 mm
09:20 PM 5.2°F-14.9°C -3.0°F-19.4°C 68% Calm Calm -- 30.72 in1040.3 mb 0.00 in0.0 mm 0.00 in0.0 mm 0.00 in0.0 mm
09:15 PM 5.2°F-14.9°C -2.7°F-19.3°C 69% Calm Calm -- 30.72 in1040.3 mb 0.00 in0.0 mm 0.00 in0.0 mm 0.00 in0.0 mm
09:10 PM 5.4°F-14.8°C -2.8°F-19.3°C 68% Calm Calm 1.0 mph1.6 kmh 30.72 in1040.3 mb 0.00 in0.0 mm 0.00 in0.0 mm 0.00 in0.0 mm
09:05 PM 6.1°F-14.4°C -3.1°F-19.5°C 65% Calm Calm -- 30.72 in1040.3 mb 0.00 in0.0 mm 0.00 in0.0 mm 0.00 in0.0 mm
09:00 PM 6.3°F-14.3°C -2.9°F-19.4°C 65% Calm Calm 2.0 mph3.2 kmh 30.72 in1040.3 mb 0.00 in0.0 mm 0.00 in0.0 mm 0.00 in0.0 mm
08:55 PM 6.3°F-14.3°C -3.2°F-19.6°C 64% 1.0 mph ESE1.6 kmh ESE 2.0 mph3.2 kmh 30.72 in1040.3 mb 0.00 in0.0 mm 0.00 in0.0 mm 0.00 in0.0 mm
08:50 PM 6.3°F-14.3°C -2.9°F-19.4°C 65% Calm Calm 1.0 mph1.6 kmh 30.72 in1040.3 mb 0.00 in0.0 mm 0.00 in0.0 mm 0.00 in0.0 mm
08:45 PM 6.6°F-14.1°C -3.0°F-19.4°C 64% 1.0 mph SE1.6 kmh SE 2.0 mph3.2 kmh 30.72 in1040.3 mb 0.00 in0.0 mm 0.00 in0.0 mm 0.00 in0.0 mm
08:40 PM 6.6°F-14.1°C -3.0°F-19.4°C 64% 1.0 mph ESE1.6 kmh ESE 2.0 mph3.2 kmh 30.72 in1040.3 mb 0.00 in0.0 mm 0.00 in0.0 mm 0.00 in0.0 mm
08:35 PM 6.6°F-14.1°C -3.0°F-19.4°C 64% 1.0 mph ESE1.6 kmh ESE 2.0 mph3.2 kmh 30.72 in1040.3 mb 0.00 in0.0 mm 0.00 in0.0 mm 0.00 in0.0 mm
08:30 PM 6.6°F-14.1°C -3.0°F-19.4°C 64% 1.0 mph SE1.6 kmh SE 3.0 mph4.8 kmh 30.72 in1040.3 mb 0.00 in0.0 mm 0.00 in0.0 mm 0.00 in0.0 mm
08:25 PM 6.4°F-14.2°C -3.1°F-19.5°C 64% 3.0 mph SE4.8 kmh SE 3.0 mph4.8 kmh 30.73 in1040.6 mb 0.00 in0.0 mm 0.00 in0.0 mm 0.00 in0.0 mm
08:20 PM 6.6°F-14.1°C -3.3°F-19.6°C 63% 3.0 mph ESE4.8 kmh ESE 4.0 mph6.4 kmh 30.73 in1040.6 mb 0.00 in0.0 mm 0.00 in0.0 mm 0.00 in0.0 mm
08:15 PM 6.6°F-14.1°C -3.0°F-19.4°C 64% 3.0 mph SE4.8 kmh SE 4.0 mph6.4 kmh 30.73 in1040.6 mb 0.00 in0.0 mm 0.00 in0.0 mm 0.00 in0.0 mm
08:10 PM 6.8°F-14.0°C -2.8°F-19.3°C 64% 2.0 mph SSE3.2 kmh SSE 3.0 mph4.8 kmh 30.72 in1040.3 mb 0.00 in0.0 mm 0.00 in0.0 mm 0.00 in0.0 mm
08:05 PM 6.8°F-14.0°C -2.8°F-19.3°C 64% 3.0 mph ESE4.8 kmh ESE 4.0 mph6.4 kmh 30.72 in1040.3 mb 0.00 in0.0 mm 0.00 in0.0 mm 0.00 in0.0 mm
08:00 PM 7.0°F-13.9°C -2.6°F-19.2°C 64% 3.0 mph ESE4.8 kmh ESE 4.0 mph6.4 kmh 30.73 in1040.6 mb 0.00 in0.0 mm 0.00 in0.0 mm 0.00 in0.0 mm
07:55 PM 7.2°F-13.8°C -2.7°F-19.3°C 63% 3.0 mph ESE4.8 kmh ESE 3.0 mph4.8 kmh 30.73 in1040.6 mb 0.00 in0.0 mm 0.00 in0.0 mm 0.00 in0.0 mm
07:50 PM 7.2°F-13.8°C -2.7°F-19.3°C 63% 1.0 mph SSE1.6 kmh SSE 3.0 mph4.8 kmh 30.73 in1040.6 mb 0.00 in0.0 mm 0.00 in0.0 mm 0.00 in0.0 mm
07:45 PM 7.2°F-13.8°C -3.0°F-19.4°C 62% 2.0 mph ESE3.2 kmh ESE 4.0 mph6.4 kmh 30.73 in1040.6 mb 0.00 in0.0 mm 0.00 in0.0 mm 0.00 in0.0 mm
07:40 PM 7.3°F-13.7°C -2.6°F-19.2°C 63% 2.0 mph ESE3.2 kmh ESE 4.0 mph6.4 kmh 30.73 in1040.6 mb 0.00 in0.0 mm 0.00 in0.0 mm 0.00 in0.0 mm
07:35 PM 7.3°F-13.7°C -2.6°F-19.2°C 63% 3.0 mph ESE4.8 kmh ESE 3.0 mph4.8 kmh 30.74 in1041.0 mb 0.00 in0.0 mm 0.00 in0.0 mm 0.00 in0.0 mm
07:30 PM 7.5°F-13.6°C -2.4°F-19.1°C 63% 3.0 mph ESE4.8 kmh ESE 3.0 mph4.8 kmh 30.74 in1041.0 mb 0.00 in0.0 mm 0.00 in0.0 mm 0.00 in0.0 mm
07:25 PM 7.5°F-13.6°C -2.8°F-19.3°C 62% 2.0 mph ESE3.2 kmh ESE 3.0 mph4.8 kmh 30.74 in1041.0 mb 0.00 in0.0 mm 0.00 in0.0 mm 0.00 in0.0 mm
07:20 PM 7.5°F-13.6°C -2.8°F-19.3°C 62% 3.0 mph ESE4.8 kmh ESE 4.0 mph6.4 kmh 30.74 in1041.0 mb 0.00 in0.0 mm 0.00 in0.0 mm 0.00 in0.0 mm
07:15 PM 7.5°F-13.6°C -3.1°F-19.5°C 61% 3.0 mph ESE4.8 kmh ESE 3.0 mph4.8 kmh 30.73 in1040.6 mb 0.00 in0.0 mm 0.00 in0.0 mm 0.00 in0.0 mm
07:10 PM 7.5°F-13.6°C -2.8°F-19.3°C 62% 2.0 mph ESE3.2 kmh ESE 4.0 mph6.4 kmh 30.74 in1041.0 mb 0.00 in0.0 mm 0.00 in0.0 mm 0.00 in0.0 mm
07:05 PM 7.5°F-13.6°C -3.1°F-19.5°C 61% 2.0 mph SE3.2 kmh SE 2.0 mph3.2 kmh 30.73 in1040.6 mb 0.00 in0.0 mm 0.00 in0.0 mm 0.00 in0.0 mm
07:00 PM 7.9°F-13.4°C -3.1°F-19.5°C 60% 1.0 mph ESE1.6 kmh ESE 2.0 mph3.2 kmh 30.74 in1041.0 mb 0.00 in0.0 mm 0.00 in0.0 mm 0.00 in0.0 mm
06:55 PM 8.1°F-13.3°C -2.9°F-19.4°C 60% 2.0 mph SE3.2 kmh SE 2.0 mph3.2 kmh 30.73 in1040.6 mb 0.00 in0.0 mm 0.00 in0.0 mm 0.00 in0.0 mm
06:50 PM 8.2°F-13.2°C -2.8°F-19.3°C 60% 1.0 mph ESE1.6 kmh ESE 1.0 mph1.6 kmh 30.73 in1040.6 mb 0.00 in0.0 mm 0.00 in0.0 mm 0.00 in0.0 mm
06:45 PM 8.4°F-13.1°C -2.6°F-19.2°C 60% Calm Calm 2.0 mph3.2 kmh 30.73 in1040.6 mb 0.00 in0.0 mm 0.00 in0.0 mm 0.00 in0.0 mm
06:40 PM 8.4°F-13.1°C -2.9°F-19.4°C 59% 2.0 mph E3.2 kmh E 4.0 mph6.4 kmh 30.73 in1040.6 mb 0.00 in0.0 mm 0.00 in0.0 mm 0.00 in0.0 mm
06:35 PM 8.6°F-13.0°C -2.4°F-19.1°C 60% 4.0 mph SE6.4 kmh SE 4.0 mph6.4 kmh 30.73 in1040.6 mb 0.00 in0.0 mm 0.00 in0.0 mm 0.00 in0.0 mm
06:30 PM 8.6°F-13.0°C -2.4°F-19.1°C 60% 2.0 mph ESE3.2 kmh ESE 3.0 mph4.8 kmh 30.73 in1040.6 mb 0.00 in0.0 mm 0.00 in0.0 mm 0.00 in0.0 mm
06:25 PM 8.8°F-12.9°C -1.9°F-18.8°C 61% 2.0 mph ESE3.2 kmh ESE 4.0 mph6.4 kmh 30.73 in1040.6 mb 0.00 in0.0 mm 0.00 in0.0 mm 0.00 in0.0 mm
06:20 PM 8.8°F-12.9°C -2.2°F-19.0°C 60% 3.0 mph ESE4.8 kmh ESE 3.0 mph4.8 kmh 30.72 in1040.3 mb 0.00 in0.0 mm 0.00 in0.0 mm 0.00 in0.0 mm
06:15 PM 8.8°F-12.9°C -2.2°F-19.0°C 60% 2.0 mph ESE3.2 kmh ESE 2.0 mph3.2 kmh 30.71 in1040.0 mb 0.00 in0.0 mm 0.00 in0.0 mm 0.00 in0.0 mm
06:10 PM 8.8°F-12.9°C -2.2°F-19.0°C 60% 2.0 mph SSE3.2 kmh SSE 2.0 mph3.2 kmh 30.71 in1040.0 mb 0.00 in0.0 mm 0.00 in0.0 mm 0.00 in0.0 mm
06:05 PM 8.8°F-12.9°C -2.2°F-19.0°C 60% 3.0 mph SE4.8 kmh SE 4.0 mph6.4 kmh 30.71 in1040.0 mb 0.00 in0.0 mm 0.00 in0.0 mm 0.00 in0.0 mm
06:00 PM 8.8°F-12.9°C -1.9°F-18.8°C 61% 2.0 mph E3.2 kmh E 3.0 mph4.8 kmh 30.71 in1040.0 mb 0.00 in0.0 mm 0.00 in0.0 mm 0.00 in0.0 mm
05:55 PM 8.8°F-12.9°C -1.5°F-18.6°C 62% 2.0 mph ESE3.2 kmh ESE 2.0 mph3.2 kmh 30.71 in1040.0 mb 0.00 in0.0 mm 0.00 in0.0 mm 0.00 in0.0 mm
05:50 PM 8.8°F-12.9°C -0.9°F-18.3°C 64% 1.0 mph ESE1.6 kmh ESE 1.0 mph1.6 kmh 30.71 in1040.0 mb 0.00 in0.0 mm 0.00 in0.0 mm 0.00 in0.0 mm
05:45 PM 8.4°F-13.1°C -1.2°F-18.4°C 64% Calm Calm -- 30.71 in1040.0 mb 0.00 in0.0 mm 0.00 in0.0 mm 0.00 in0.0 mm
05:40 PM 8.2°F-13.2°C -0.8°F-18.2°C 66% Calm Calm -- 30.71 in1040.0 mb 0.00 in0.0 mm 0.00 in0.0 mm 0.00 in0.0 mm
05:35 PM 9.0°F-12.8°C -2.0°F-18.9°C 60% Calm Calm -- 30.71 in1040.0 mb 0.00 in0.0 mm 0.00 in0.0 mm 0.00 in0.0 mm
05:30 PM 9.7°F-12.4°C -0.7°F-18.2°C 62% Calm Calm -- 30.71 in1040.0 mb 0.00 in0.0 mm 0.00 in0.0 mm 0.00 in0.0 mm
05:25 PM 9.9°F-12.3°C -0.8°F-18.2°C 61% Calm Calm -- 30.71 in1040.0 mb 0.00 in0.0 mm 0.00 in0.0 mm 0.00 in0.0 mm
05:20 PM 9.7°F-12.4°C -1.0°F-18.3°C 61% Calm Calm -- 30.71 in1040.0 mb 0.00 in0.0 mm 0.00 in0.0 mm 0.00 in0.0 mm
05:15 PM 9.9°F-12.3°C -0.8°F-18.2°C 61% Calm Calm -- 30.71 in1040.0 mb 0.00 in0.0 mm 0.00 in0.0 mm 0.00 in0.0 mm
05:10 PM 9.7°F-12.4°C 0.0°F-17.8°C 64% Calm Calm 2.0 mph3.2 kmh 30.71 in1040.0 mb 0.00 in0.0 mm 0.00 in0.0 mm 0.00 in0.0 mm
05:05 PM 10.2°F-12.1°C 0.1°F-17.7°C 63% Calm Calm -- 30.71 in1040.0 mb 0.00 in0.0 mm 0.00 in0.0 mm 0.00 in0.0 mm
05:00 PM 11.1°F-11.6°C -1.1°F-18.4°C 57% Calm Calm -- 30.71 in1040.0 mb 0.00 in0.0 mm 0.00 in0.0 mm 0.00 in0.0 mm
04:55 PM 11.1°F-11.6°C -1.5°F-18.6°C 56% Calm Calm 1.0 mph1.6 kmh 30.71 in1040.0 mb 0.00 in0.0 mm 0.00 in0.0 mm 0.00 in0.0 mm
04:50 PM 11.8°F-11.2°C -1.6°F-18.7°C 54% Calm Calm -- 30.71 in1040.0 mb 0.00 in0.0 mm 0.00 in0.0 mm 0.00 in0.0 mm
04:45 PM 11.7°F-11.3°C -1.7°F-18.7°C 54% Calm Calm -- 30.71 in1040.0 mb 0.00 in0.0 mm 0.00 in0.0 mm 0.00 in0.0 mm
04:40 PM 12.0°F-11.1°C -0.6°F-18.1°C 56% Calm Calm 1.0 mph1.6 kmh 30.71 in1040.0 mb 0.00 in0.0 mm 0.00 in0.0 mm 0.00 in0.0 mm
04:35 PM 12.0°F-11.1°C -1.8°F-18.8°C 53% Calm Calm -- 30.71 in1040.0 mb 0.00 in0.0 mm 0.00 in0.0 mm 0.00 in0.0 mm
04:30 PM 12.0°F-11.1°C -1.4°F-18.6°C 54% Calm Calm -- 30.70 in1039.6 mb 0.00 in0.0 mm 0.00 in0.0 mm 0.00 in0.0 mm
04:25 PM 12.0°F-11.1°C -2.2°F-19.0°C 52% 2.0 mph ESE3.2 kmh ESE 2.0 mph3.2 kmh 30.70 in1039.6 mb 0.00 in0.0 mm 0.00 in0.0 mm 0.00 in0.0 mm
04:20 PM 12.6°F-10.8°C -1.2°F-18.4°C 53% Calm Calm 2.0 mph3.2 kmh 30.70 in1039.6 mb 0.00 in0.0 mm 0.00 in0.0 mm 0.00 in0.0 mm
04:15 PM 12.7°F-10.7°C -1.2°F-18.4°C 53% 1.0 mph SSW1.6 kmh SSW 3.0 mph4.8 kmh 30.70 in1039.6 mb 0.00 in0.0 mm 0.00 in0.0 mm 0.00 in0.0 mm
04:10 PM 13.1°F-10.5°C -0.8°F-18.2°C 53% 4.0 mph SW6.4 kmh SW 4.0 mph6.4 kmh 30.70 in1039.6 mb 0.00 in0.0 mm 0.00 in0.0 mm 0.00 in0.0 mm
04:05 PM 13.6°F-10.2°C -0.7°F-18.2°C 52% Calm Calm 1.0 mph1.6 kmh 30.70 in1039.6 mb 0.00 in0.0 mm 0.00 in0.0 mm 0.00 in0.0 mm
04:00 PM 13.1°F-10.5°C -1.2°F-18.4°C 52% 1.0 mph E1.6 kmh E 3.0 mph4.8 kmh 30.70 in1039.6 mb 0.00 in0.0 mm 0.00 in0.0 mm 0.00 in0.0 mm
03:55 PM 13.3°F-10.4°C -1.0°F-18.3°C 52% Calm Calm 2.0 mph3.2 kmh 30.70 in1039.6 mb 0.00 in0.0 mm 0.00 in0.0 mm 0.00 in0.0 mm
03:50 PM 13.3°F-10.4°C -1.0°F-18.3°C 52% 2.0 mph ESE3.2 kmh ESE 3.0 mph4.8 kmh 30.70 in1039.6 mb 0.00 in0.0 mm 0.00 in0.0 mm 0.00 in0.0 mm
03:45 PM 13.3°F-10.4°C -1.8°F-18.8°C 50% Calm Calm 2.0 mph3.2 kmh 30.70 in1039.6 mb 0.00 in0.0 mm 0.00 in0.0 mm 0.00 in0.0 mm
03:40 PM 13.3°F-10.4°C -0.6°F-18.1°C 53% 2.0 mph ESE3.2 kmh ESE 2.0 mph3.2 kmh 30.70 in1039.6 mb 0.00 in0.0 mm 0.00 in0.0 mm 0.00 in0.0 mm
03:35 PM 13.3°F-10.4°C -1.0°F-18.3°C 52% 2.0 mph SE3.2 kmh SE 3.0 mph4.8 kmh 30.70 in1039.6 mb 0.00 in0.0 mm 0.00 in0.0 mm 0.00 in0.0 mm
03:30 PM 13.6°F-10.2°C -1.1°F-18.4°C 51% 1.0 mph SSE1.6 kmh SSE 3.0 mph4.8 kmh 30.70 in1039.6 mb 0.00 in0.0 mm 0.00 in0.0 mm 0.00 in0.0 mm
03:25 PM 13.5°F-10.3°C -1.6°F-18.7°C 50% 4.0 mph ESE6.4 kmh ESE 4.0 mph6.4 kmh 30.71 in1040.0 mb 0.00 in0.0 mm 0.00 in0.0 mm 0.00 in0.0 mm
03:20 PM 13.8°F-10.1°C -0.5°F-18.1°C 52% 2.0 mph NE3.2 kmh NE 4.0 mph6.4 kmh 30.71 in1040.0 mb 0.00 in0.0 mm 0.00 in0.0 mm 0.00 in0.0 mm
03:15 PM 14.0°F-10.0°C -1.2°F-18.4°C 50% 3.0 mph ESE4.8 kmh ESE 4.0 mph6.4 kmh 30.70 in1039.6 mb 0.00 in0.0 mm 0.00 in0.0 mm 0.00 in0.0 mm
03:10 PM 14.0°F-10.0°C -2.0°F-18.9°C 48% 4.0 mph E6.4 kmh E 4.0 mph6.4 kmh 30.70 in1039.6 mb 0.00 in0.0 mm 0.00 in0.0 mm 0.00 in0.0 mm
03:05 PM 14.2°F-9.9°C -1.0°F-18.3°C 50% 2.0 mph ESE3.2 kmh ESE 4.0 mph6.4 kmh 30.70 in1039.6 mb 0.00 in0.0 mm 0.00 in0.0 mm 0.00 in0.0 mm
03:00 PM 14.0°F-10.0°C -1.6°F-18.7°C 49% 2.0 mph ESE3.2 kmh ESE 4.0 mph6.4 kmh 30.70 in1039.6 mb 0.00 in0.0 mm 0.00 in0.0 mm 0.00 in0.0 mm
02:55 PM 14.0°F-10.0°C -1.2°F-18.4°C 50% 3.0 mph SSE4.8 kmh SSE 4.0 mph6.4 kmh 30.70 in1039.6 mb 0.00 in0.0 mm 0.00 in0.0 mm 0.00 in0.0 mm
02:50 PM 14.2°F-9.9°C -1.4°F-18.6°C 49% 3.0 mph NNE4.8 kmh NNE 4.0 mph6.4 kmh 30.70 in1039.6 mb 0.00 in0.0 mm 0.00 in0.0 mm 0.00 in0.0 mm
02:45 PM 14.2°F-9.9°C -1.4°F-18.6°C 49% 3.0 mph ESE4.8 kmh ESE 4.0 mph6.4 kmh 30.70 in1039.6 mb 0.00 in0.0 mm 0.00 in0.0 mm 0.00 in0.0 mm
02:40 PM 14.4°F-9.8°C -1.7°F-18.7°C 48% 1.0 mph SSE1.6 kmh SSE 5.0 mph8.0 kmh 30.69 in1039.3 mb 0.00 in0.0 mm 0.00 in0.0 mm 0.00 in0.0 mm
02:35 PM 14.2°F-9.9°C -1.4°F-18.6°C 49% 1.0 mph SSW1.6 kmh SSW 5.0 mph8.0 kmh 30.69 in1039.3 mb 0.00 in0.0 mm 0.00 in0.0 mm 0.00 in0.0 mm
02:30 PM 14.5°F-9.7°C -1.6°F-18.7°C 48% 4.0 mph ESE6.4 kmh ESE 4.0 mph6.4 kmh 30.69 in1039.3 mb 0.00 in0.0 mm 0.00 in0.0 mm 0.00 in0.0 mm
02:25 PM 14.7°F-9.6°C -2.3°F-19.1°C 46% 4.0 mph SSE6.4 kmh SSE 5.0 mph8.0 kmh 30.69 in1039.3 mb 0.00 in0.0 mm 0.00 in0.0 mm 0.00 in0.0 mm
02:20 PM 14.9°F-9.5°C -2.1°F-18.9°C 46% 3.0 mph ESE4.8 kmh ESE 4.0 mph6.4 kmh 30.69 in1039.3 mb 0.00 in0.0 mm 0.00 in0.0 mm 0.00 in0.0 mm
02:15 PM 14.5°F-9.7°C -1.1°F-18.4°C 49% 1.0 mph E1.6 kmh E 5.0 mph8.0 kmh 30.69 in1039.3 mb 0.00 in0.0 mm 0.00 in0.0 mm 0.00 in0.0 mm
02:10 PM 14.4°F-9.8°C -2.6°F-19.2°C 46% 3.0 mph ESE4.8 kmh ESE 3.0 mph4.8 kmh 30.69 in1039.3 mb 0.00 in0.0 mm 0.00 in0.0 mm 0.00 in0.0 mm
02:05 PM 14.2°F-9.9°C -4.6°F-20.3°C 42% 4.0 mph ESE6.4 kmh ESE 4.0 mph6.4 kmh 30.69 in1039.3 mb 0.00 in0.0 mm 0.00 in0.0 mm 0.00 in0.0 mm
02:00 PM 14.4°F-9.8°C -4.5°F-20.3°C 42% 4.0 mph ESE6.4 kmh ESE 6.0 mph9.7 kmh 30.69 in1039.3 mb 0.00 in0.0 mm 0.00 in0.0 mm 0.00 in0.0 mm
01:55 PM 14.2°F-9.9°C -5.1°F-20.6°C 41% 3.0 mph SSW4.8 kmh SSW 5.0 mph8.0 kmh 30.69 in1039.3 mb 0.00 in0.0 mm 0.00 in0.0 mm 0.00 in0.0 mm
01:50 PM 14.2°F-9.9°C -5.1°F-20.6°C 41% 6.0 mph ESE9.7 kmh ESE 6.0 mph9.7 kmh 30.69 in1039.3 mb 0.00 in0.0 mm 0.00 in0.0 mm 0.00 in0.0 mm
01:45 PM 14.4°F-9.8°C -4.5°F-20.3°C 42% 6.0 mph ESE9.7 kmh ESE 6.0 mph9.7 kmh 30.69 in1039.3 mb 0.00 in0.0 mm 0.00 in0.0 mm 0.00 in0.0 mm
01:40 PM 14.4°F-9.8°C -4.5°F-20.3°C 42% 4.0 mph SE6.4 kmh SE 4.0 mph6.4 kmh 30.69 in1039.3 mb 0.00 in0.0 mm 0.00 in0.0 mm 0.00 in0.0 mm
01:37 PM 14.0°F-10.0°C -5.3°F-20.7°C 41% 3.0 mph ESE4.8 kmh ESE 3.0 mph4.8 kmh 30.69 in1039.3 mb 0.00 in0.0 mm 0.00 in0.0 mm 0.00 in0.0 mm
01:25 PM 14.0°F-10.0°C -5.3°F-20.7°C 41% 1.0 mph S1.6 kmh S 1.0 mph1.6 kmh 30.69 in1039.3 mb 0.00 in0.0 mm 0.00 in0.0 mm 0.00 in0.0 mm
01:20 PM 13.8°F-10.1°C -6.5°F-21.4°C 39% 3.0 mph ESE4.8 kmh ESE 5.0 mph8.0 kmh 30.69 in1039.3 mb 0.00 in0.0 mm 0.00 in0.0 mm 0.00 in0.0 mm
01:16 PM 13.5°F-10.3°C -6.3°F-21.3°C 40% 4.0 mph ESE6.4 kmh ESE 6.0 mph9.7 kmh 30.69 in1039.3 mb 0.00 in0.0 mm 0.00 in0.0 mm 0.00 in0.0 mm
01:10 PM 13.6°F-10.2°C -5.7°F-20.9°C 41% 5.0 mph ESE8.0 kmh ESE 7.0 mph11.3 kmh 30.69 in1039.3 mb 0.00 in0.0 mm 0.00 in0.0 mm 0.00 in0.0 mm
01:05 PM 13.5°F-10.3°C -5.8°F-21.0°C 41% 6.0 mph SE9.7 kmh SE 6.0 mph9.7 kmh 30.69 in1039.3 mb 0.00 in0.0 mm 0.00 in0.0 mm 0.00 in0.0 mm
01:00 PM 13.6°F-10.2°C -5.7°F-20.9°C 41% 3.0 mph ESE4.8 kmh ESE 5.0 mph8.0 kmh 30.69 in1039.3 mb 0.00 in0.0 mm 0.00 in0.0 mm 0.00 in0.0 mm
12:55 PM 13.5°F-10.3°C -5.8°F-21.0°C 41% 4.0 mph SE6.4 kmh SE 5.0 mph8.0 kmh 30.70 in1039.6 mb 0.00 in0.0 mm 0.00 in0.0 mm 0.00 in0.0 mm
12:50 PM 13.6°F-10.2°C -5.2°F-20.7°C 42% 7.0 mph SW11.3 kmh SW 7.0 mph11.3 kmh 30.70 in1039.6 mb 0.00 in0.0 mm 0.00 in0.0 mm 0.00 in0.0 mm
12:45 PM 13.6°F-10.2°C -6.7°F-21.5°C 39% 8.0 mph SE12.9 kmh SE 9.0 mph14.5 kmh 30.70 in1039.6 mb 0.00 in0.0 mm 0.00 in0.0 mm 0.00 in0.0 mm
12:40 PM 13.6°F-10.2°C -6.7°F-21.5°C 39% 3.0 mph NE4.8 kmh NE 6.0 mph9.7 kmh 30.70 in1039.6 mb 0.00 in0.0 mm 0.00 in0.0 mm 0.00 in0.0 mm
12:35 PM 13.6°F-10.2°C -6.2°F-21.2°C 40% 3.0 mph WSW4.8 kmh WSW 8.0 mph12.9 kmh 30.71 in1040.0 mb 0.00 in0.0 mm 0.00 in0.0 mm 0.00 in0.0 mm
12:30 PM 13.5°F-10.3°C -5.3°F-20.7°C 42% 1.0 mph SSW1.6 kmh SSW 7.0 mph11.3 kmh 30.71 in1040.0 mb 0.00 in0.0 mm 0.00 in0.0 mm 0.00 in0.0 mm
12:25 PM 13.6°F-10.2°C -5.2°F-20.7°C 42% 2.0 mph SE3.2 kmh SE 5.0 mph8.0 kmh 30.71 in1040.0 mb 0.00 in0.0 mm 0.00 in0.0 mm 0.00 in0.0 mm
12:20 PM 13.8°F-10.1°C -4.5°F-20.3°C 43% 5.0 mph SSE8.0 kmh SSE 6.0 mph9.7 kmh 30.71 in1040.0 mb 0.00 in0.0 mm 0.00 in0.0 mm 0.00 in0.0 mm
12:15 PM 13.8°F-10.1°C -4.5°F-20.3°C 43% 4.0 mph SE6.4 kmh SE 4.0 mph6.4 kmh 30.71 in1040.0 mb 0.00 in0.0 mm 0.00 in0.0 mm 0.00 in0.0 mm
12:10 PM 12.9°F-10.6°C -5.3°F-20.7°C 43% 5.0 mph ESE8.0 kmh ESE 8.0 mph12.9 kmh 30.71 in1040.0 mb 0.00 in0.0 mm 0.00 in0.0 mm 0.00 in0.0 mm
12:05 PM 13.1°F-10.5°C -5.6°F-20.9°C 42% 4.0 mph ESE6.4 kmh ESE 5.0 mph8.0 kmh 30.72 in1040.3 mb 0.00 in0.0 mm 0.00 in0.0 mm 0.00 in0.0 mm
12:00 PM 12.9°F-10.6°C -3.9°F-19.9°C 46% 3.0 mph W4.8 kmh W 4.0 mph6.4 kmh 30.72 in1040.3 mb 0.00 in0.0 mm 0.00 in0.0 mm 0.00 in0.0 mm
11:55 AM 12.4°F-10.9°C -5.8°F-21.0°C 43% 4.0 mph SE6.4 kmh SE 5.0 mph8.0 kmh 30.72 in1040.3 mb 0.00 in0.0 mm 0.00 in0.0 mm 0.00 in0.0 mm
11:50 AM 12.2°F-11.0°C -5.0°F-20.6°C 45% 2.0 mph 3.2 kmh 5.0 mph8.0 kmh 30.72 in1040.3 mb 0.00 in0.0 mm 0.00 in0.0 mm 0.00 in0.0 mm
11:45 AM 12.0°F-11.1°C -4.8°F-20.4°C 46% 1.0 mph SE1.6 kmh SE 6.0 mph9.7 kmh 30.72 in1040.3 mb 0.00 in0.0 mm 0.00 in0.0 mm 0.00 in0.0 mm
11:40 AM 12.4°F-10.9°C -5.3°F-20.7°C 44% 2.0 mph SE3.2 kmh SE 4.0 mph6.4 kmh 30.72 in1040.3 mb 0.00 in0.0 mm 0.00 in0.0 mm 0.00 in0.0 mm
11:35 AM 12.4°F-10.9°C -3.9°F-19.9°C 47% 2.0 mph ESE3.2 kmh ESE 3.0 mph4.8 kmh 30.72 in1040.3 mb 0.00 in0.0 mm 0.00 in0.0 mm 0.00 in0.0 mm
11:30 AM 13.3°F-10.4°C -4.0°F-20.0°C 45% 1.0 mph ESE1.6 kmh ESE 4.0 mph6.4 kmh 30.72 in1040.3 mb 0.00 in0.0 mm 0.00 in0.0 mm 0.00 in0.0 mm
11:25 AM 14.0°F-10.0°C -4.3°F-20.2°C 43% Calm Calm 2.0 mph3.2 kmh 30.72 in1040.3 mb 0.00 in0.0 mm 0.00 in0.0 mm 0.00 in0.0 mm
11:20 AM 14.5°F-9.7°C -2.5°F-19.2°C 46% Calm Calm 3.0 mph4.8 kmh 30.73 in1040.6 mb 0.00 in0.0 mm 0.00 in0.0 mm 0.00 in0.0 mm
11:15 AM 11.7°F-11.3°C -3.3°F-19.6°C 50% 1.0 mph SSE1.6 kmh SSE 5.0 mph8.0 kmh 30.73 in1040.6 mb 0.00 in0.0 mm 0.00 in0.0 mm 0.00 in0.0 mm
11:10 AM 12.2°F-11.0°C -3.3°F-19.6°C 49% 3.0 mph NNE4.8 kmh NNE 4.0 mph6.4 kmh 30.73 in1040.6 mb 0.00 in0.0 mm 0.00 in0.0 mm 0.00 in0.0 mm
11:05 AM 10.8°F-11.8°C -3.7°F-19.8°C 51% 4.0 mph ESE6.4 kmh ESE 5.0 mph8.0 kmh 30.73 in1040.6 mb 0.00 in0.0 mm 0.00 in0.0 mm 0.00 in0.0 mm
11:00 AM 10.9°F-11.7°C -4.1°F-20.1°C 50% 4.0 mph ENE6.4 kmh ENE 4.0 mph6.4 kmh 30.73 in1040.6 mb 0.00 in0.0 mm 0.00 in0.0 mm 0.00 in0.0 mm
10:55 AM 12.2°F-11.0°C -2.0°F-18.9°C 52% 4.0 mph SSE6.4 kmh SSE 4.0 mph6.4 kmh 30.73 in1040.6 mb 0.00 in0.0 mm 0.00 in0.0 mm 0.00 in0.0 mm
10:50 AM 11.1°F-11.6°C -3.5°F-19.7°C 51% 3.0 mph SE4.8 kmh SE 4.0 mph6.4 kmh 30.72 in1040.3 mb 0.00 in0.0 mm 0.00 in0.0 mm 0.00 in0.0 mm
10:45 AM 9.5°F-12.5°C -5.8°F-21.0°C 49% 1.0 mph E1.6 kmh E 4.0 mph6.4 kmh 30.73 in1040.6 mb 0.00 in0.0 mm 0.00 in0.0 mm 0.00 in0.0 mm
10:40 AM 9.7°F-12.4°C -5.2°F-20.7°C 50% 3.0 mph ESE4.8 kmh ESE 4.0 mph6.4 kmh 30.73 in1040.6 mb 0.00 in0.0 mm 0.00 in0.0 mm 0.00 in0.0 mm
10:35 AM 9.7°F-12.4°C -4.8°F-20.4°C 51% 5.0 mph NNE8.0 kmh NNE 5.0 mph8.0 kmh 30.73 in1040.6 mb 0.00 in0.0 mm 0.00 in0.0 mm 0.00 in0.0 mm
10:30 AM 10.0°F-12.2°C -4.1°F-20.1°C 52% 3.0 mph SE4.8 kmh SE 4.0 mph6.4 kmh 30.73 in1040.6 mb 0.00 in0.0 mm 0.00 in0.0 mm 0.00 in0.0 mm
10:25 AM 10.6°F-11.9°C -3.5°F-19.7°C 52% 3.0 mph SE4.8 kmh SE 4.0 mph6.4 kmh 30.73 in1040.6 mb 0.00 in0.0 mm 0.00 in0.0 mm 0.00 in0.0 mm
10:20 AM 10.0°F-12.2°C -4.1°F-20.1°C 52% 3.0 mph SE4.8 kmh SE 5.0 mph8.0 kmh 30.73 in1040.6 mb 0.00 in0.0 mm 0.00 in0.0 mm 0.00 in0.0 mm
10:15 AM 11.1°F-11.6°C -2.6°F-19.2°C 53% 2.0 mph S3.2 kmh S 3.0 mph4.8 kmh 30.73 in1040.6 mb 0.00 in0.0 mm 0.00 in0.0 mm 0.00 in0.0 mm
10:10 AM 10.2°F-12.1°C -3.1°F-19.5°C 54% 3.0 mph ESE4.8 kmh ESE 3.0 mph4.8 kmh 30.73 in1040.6 mb 0.00 in0.0 mm 0.00 in0.0 mm 0.00 in0.0 mm
10:05 AM 9.1°F-12.7°C -4.1°F-20.1°C 54% 4.0 mph ESE6.4 kmh ESE 5.0 mph8.0 kmh 30.72 in1040.3 mb 0.00 in0.0 mm 0.00 in0.0 mm 0.00 in0.0 mm
10:00 AM 8.4°F-13.1°C -3.7°F-19.8°C 57% 2.0 mph ESE3.2 kmh ESE 4.0 mph6.4 kmh 30.72 in1040.3 mb 0.00 in0.0 mm 0.00 in0.0 mm 0.00 in0.0 mm
09:55 AM 8.6°F-13.0°C -2.8°F-19.3°C 59% 1.0 mph SSE1.6 kmh SSE 4.0 mph6.4 kmh 30.72 in1040.3 mb 0.00 in0.0 mm 0.00 in0.0 mm 0.00 in0.0 mm
09:50 AM 7.3°F-13.7°C -3.6°F-19.8°C 60% 2.0 mph ESE3.2 kmh ESE 4.0 mph6.4 kmh 30.72 in1040.3 mb 0.00 in0.0 mm 0.00 in0.0 mm 0.00 in0.0 mm
09:45 AM 7.0°F-13.9°C -3.9°F-19.9°C 60% 1.0 mph NNW1.6 kmh NNW 5.0 mph8.0 kmh 30.72 in1040.3 mb 0.00 in0.0 mm 0.00 in0.0 mm 0.00 in0.0 mm
09:40 AM 6.8°F-14.0°C -4.1°F-20.1°C 60% 4.0 mph ESE6.4 kmh ESE 4.0 mph6.4 kmh 30.72 in1040.3 mb 0.00 in0.0 mm 0.00 in0.0 mm 0.00 in0.0 mm
09:35 AM 6.6°F-14.1°C -4.0°F-20.0°C 61% 4.0 mph SE6.4 kmh SE 4.0 mph6.4 kmh 30.71 in1040.0 mb 0.00 in0.0 mm 0.00 in0.0 mm 0.00 in0.0 mm
09:30 AM 6.4°F-14.2°C -4.1°F-20.1°C 61% 1.0 mph SSW1.6 kmh SSW 4.0 mph6.4 kmh 30.71 in1040.0 mb 0.00 in0.0 mm 0.00 in0.0 mm 0.00 in0.0 mm
09:25 AM 6.3°F-14.3°C -4.6°F-20.3°C 60% 5.0 mph SSE8.0 kmh SSE 5.0 mph8.0 kmh 30.71 in1040.0 mb 0.00 in0.0 mm 0.00 in0.0 mm 0.00 in0.0 mm
09:20 AM 6.3°F-14.3°C -4.2°F-20.1°C 61% 1.0 mph S1.6 kmh S 4.0 mph6.4 kmh 30.71 in1040.0 mb 0.00 in0.0 mm 0.00 in0.0 mm 0.00 in0.0 mm
09:15 AM 6.1°F-14.4°C -4.4°F-20.2°C 61% 1.0 mph E1.6 kmh E 2.0 mph3.2 kmh 30.70 in1039.6 mb 0.00 in0.0 mm 0.00 in0.0 mm 0.00 in0.0 mm
09:10 AM 5.9°F-14.5°C -3.9°F-19.9°C 63% 1.0 mph W1.6 kmh W 4.0 mph6.4 kmh 30.70 in1039.6 mb 0.00 in0.0 mm 0.00 in0.0 mm 0.00 in0.0 mm
09:05 AM 5.5°F-14.7°C -4.7°F-20.4°C 62% 2.0 mph ESE3.2 kmh ESE 4.0 mph6.4 kmh 30.70 in1039.6 mb 0.00 in0.0 mm 0.00 in0.0 mm 0.00 in0.0 mm
09:00 AM 5.4°F-14.8°C -4.4°F-20.2°C 63% 4.0 mph SSE6.4 kmh SSE 5.0 mph8.0 kmh 30.70 in1039.6 mb 0.00 in0.0 mm 0.00 in0.0 mm 0.00 in0.0 mm
08:55 AM 5.2°F-14.9°C -4.6°F-20.3°C 63% 2.0 mph S3.2 kmh S 4.0 mph6.4 kmh 30.70 in1039.6 mb 0.00 in0.0 mm 0.00 in0.0 mm 0.00 in0.0 mm
08:50 AM 5.0°F-15.0°C -4.5°F-20.3°C 64% 3.0 mph SE4.8 kmh SE 5.0 mph8.0 kmh 30.70 in1039.6 mb 0.00 in0.0 mm 0.00 in0.0 mm 0.00 in0.0 mm
08:45 AM 5.0°F-15.0°C -4.5°F-20.3°C 64% 1.0 mph WNW1.6 kmh WNW 4.0 mph6.4 kmh 30.69 in1039.3 mb 0.00 in0.0 mm 0.00 in0.0 mm 0.00 in0.0 mm
08:40 AM 4.8°F-15.1°C -4.7°F-20.4°C 64% 1.0 mph ESE1.6 kmh ESE 4.0 mph6.4 kmh 30.69 in1039.3 mb 0.00 in0.0 mm 0.00 in0.0 mm 0.00 in0.0 mm
08:35 AM 4.8°F-15.1°C -4.3°F-20.2°C 65% 1.0 mph W1.6 kmh W 4.0 mph6.4 kmh 30.69 in1039.3 mb 0.00 in0.0 mm 0.00 in0.0 mm 0.00 in0.0 mm
08:30 AM 4.6°F-15.2°C -4.5°F-20.3°C 65% 1.0 mph SSE1.6 kmh SSE 4.0 mph6.4 kmh 30.68 in1038.9 mb 0.00 in0.0 mm 0.00 in0.0 mm 0.00 in0.0 mm
08:25 AM 4.5°F-15.3°C -4.6°F-20.3°C 65% 4.0 mph SSE6.4 kmh SSE 6.0 mph9.7 kmh 30.68 in1038.9 mb 0.00 in0.0 mm 0.00 in0.0 mm 0.00 in0.0 mm
08:20 AM 4.5°F-15.3°C -4.0°F-20.0°C 67% 1.0 mph SSW1.6 kmh SSW 5.0 mph8.0 kmh 30.67 in1038.6 mb 0.00 in0.0 mm 0.00 in0.0 mm 0.00 in0.0 mm
08:15 AM 4.3°F-15.4°C -4.5°F-20.3°C 66% 1.0 mph SW1.6 kmh SW 3.0 mph4.8 kmh 30.67 in1038.6 mb 0.00 in0.0 mm 0.00 in0.0 mm 0.00 in0.0 mm
08:10 AM 4.3°F-15.4°C -4.2°F-20.1°C 67% 5.0 mph SSE8.0 kmh SSE 5.0 mph8.0 kmh 30.66 in1038.3 mb 0.00 in0.0 mm 0.00 in0.0 mm 0.00 in0.0 mm
08:05 AM 4.3°F-15.4°C -4.2°F-20.1°C 67% 2.0 mph SW3.2 kmh SW 6.0 mph9.7 kmh 30.66 in1038.3 mb 0.00 in0.0 mm 0.00 in0.0 mm 0.00 in0.0 mm
08:00 AM 4.3°F-15.4°C -4.2°F-20.1°C 67% 6.0 mph SE9.7 kmh SE 6.0 mph9.7 kmh 30.66 in1038.3 mb 0.00 in0.0 mm 0.00 in0.0 mm 0.00 in0.0 mm
07:55 AM 4.3°F-15.4°C -4.2°F-20.1°C 67% 5.0 mph SE8.0 kmh SE 5.0 mph8.0 kmh 30.66 in1038.3 mb 0.00 in0.0 mm 0.00 in0.0 mm 0.00 in0.0 mm
07:50 AM 4.3°F-15.4°C -4.2°F-20.1°C 67% 3.0 mph SSE4.8 kmh SSE 8.0 mph12.9 kmh 30.65 in1037.9 mb 0.00 in0.0 mm 0.00 in0.0 mm 0.00 in0.0 mm
07:45 AM 4.3°F-15.4°C -4.2°F-20.1°C 67% 1.0 mph SSW1.6 kmh SSW 6.0 mph9.7 kmh 30.65 in1037.9 mb 0.00 in0.0 mm 0.00 in0.0 mm 0.00 in0.0 mm
07:40 AM 4.5°F-15.3°C -4.0°F-20.0°C 67% 1.0 mph S1.6 kmh S 6.0 mph9.7 kmh 30.65 in1037.9 mb 0.00 in0.0 mm 0.00 in0.0 mm 0.00 in0.0 mm
07:35 AM 4.5°F-15.3°C -4.0°F-20.0°C 67% 1.0 mph SSE1.6 kmh SSE 6.0 mph9.7 kmh 30.65 in1037.9 mb 0.00 in0.0 mm 0.00 in0.0 mm 0.00 in0.0 mm
07:30 AM 4.6°F-15.2°C -3.9°F-19.9°C 67% 2.0 mph S3.2 kmh S 5.0 mph8.0 kmh 30.64 in1037.6 mb 0.00 in0.0 mm 0.00 in0.0 mm 0.00 in0.0 mm
07:25 AM 4.6°F-15.2°C -3.9°F-19.9°C 67% 8.0 mph SE12.9 kmh SE 8.0 mph12.9 kmh 30.64 in1037.6 mb 0.00 in0.0 mm 0.00 in0.0 mm 0.00 in0.0 mm
07:20 AM 4.6°F-15.2°C -3.9°F-19.9°C 67% 6.0 mph ESE9.7 kmh ESE 7.0 mph11.3 kmh 30.64 in1037.6 mb 0.00 in0.0 mm 0.00 in0.0 mm 0.00 in0.0 mm
07:15 AM 4.6°F-15.2°C -3.9°F-19.9°C 67% 8.0 mph SSW12.9 kmh SSW 8.0 mph12.9 kmh 30.64 in1037.6 mb 0.00 in0.0 mm 0.00 in0.0 mm 0.00 in0.0 mm
07:10 AM 4.6°F-15.2°C -3.9°F-19.9°C 67% 5.0 mph ESE8.0 kmh ESE 7.0 mph11.3 kmh 30.64 in1037.6 mb 0.00 in0.0 mm 0.00 in0.0 mm 0.00 in0.0 mm
07:05 AM 4.8°F-15.1°C -3.7°F-19.8°C 67% 2.0 mph W3.2 kmh W 6.0 mph9.7 kmh 30.63 in1037.3 mb 0.00 in0.0 mm 0.00 in0.0 mm 0.00 in0.0 mm
07:00 AM 4.8°F-15.1°C -3.7°F-19.8°C 67% 5.0 mph SE8.0 kmh SE 7.0 mph11.3 kmh 30.63 in1037.3 mb 0.00 in0.0 mm 0.00 in0.0 mm 0.00 in0.0 mm
06:55 AM 4.8°F-15.1°C -3.4°F-19.7°C 68% 1.0 mph SE1.6 kmh SE 5.0 mph8.0 kmh 30.63 in1037.3 mb 0.00 in0.0 mm 0.00 in0.0 mm 0.00 in0.0 mm
06:50 AM 5.0°F-15.0°C -3.2°F-19.6°C 68% 4.0 mph SE6.4 kmh SE 6.0 mph9.7 kmh 30.62 in1036.9 mb 0.00 in0.0 mm 0.00 in0.0 mm 0.00 in0.0 mm
06:45 AM 5.2°F-14.9°C -3.0°F-19.4°C 68% 1.0 mph SW1.6 kmh SW 4.0 mph6.4 kmh 30.62 in1036.9 mb 0.00 in0.0 mm 0.00 in0.0 mm 0.00 in0.0 mm
06:40 AM 5.2°F-14.9°C -3.0°F-19.4°C 68% 1.0 mph WSW1.6 kmh WSW 4.0 mph6.4 kmh 30.61 in1036.6 mb 0.00 in0.0 mm 0.00 in0.0 mm 0.00 in0.0 mm
06:35 AM 5.7°F-14.6°C -1.9°F-18.8°C 70% 2.0 mph SW3.2 kmh SW 5.0 mph8.0 kmh 30.60 in1036.2 mb 0.00 in0.0 mm 0.00 in0.0 mm 0.00 in0.0 mm
06:30 AM 5.2°F-14.9°C -2.7°F-19.3°C 69% 3.0 mph SW4.8 kmh SW 6.0 mph9.7 kmh 30.60 in1036.2 mb 0.00 in0.0 mm 0.00 in0.0 mm 0.00 in0.0 mm
06:25 AM 5.4°F-14.8°C -2.5°F-19.2°C 69% 3.0 mph E4.8 kmh E 8.0 mph12.9 kmh 30.59 in1035.9 mb 0.00 in0.0 mm 0.00 in0.0 mm 0.00 in0.0 mm
06:20 AM 5.4°F-14.8°C -2.8°F-19.3°C 68% 7.0 mph E11.3 kmh E 9.0 mph14.5 kmh 30.59 in1035.9 mb 0.00 in0.0 mm 0.00 in0.0 mm 0.00 in0.0 mm
06:15 AM 5.5°F-14.7°C -2.7°F-19.3°C 68% 6.0 mph SE9.7 kmh SE 9.0 mph14.5 kmh 30.59 in1035.9 mb 0.00 in0.0 mm 0.00 in0.0 mm 0.00 in0.0 mm
06:10 AM 5.9°F-14.5°C -1.7°F-18.7°C 70% 7.0 mph ESE11.3 kmh ESE 8.0 mph12.9 kmh 30.58 in1035.6 mb 0.00 in0.0 mm 0.00 in0.0 mm 0.00 in0.0 mm
06:05 AM 5.7°F-14.6°C -1.6°F-18.7°C 71% 5.0 mph S8.0 kmh S 7.0 mph11.3 kmh 30.58 in1035.6 mb 0.00 in0.0 mm 0.00 in0.0 mm 0.00 in0.0 mm
06:00 AM 5.7°F-14.6°C -1.6°F-18.7°C 71% 6.0 mph ESE9.7 kmh ESE 6.0 mph9.7 kmh 30.57 in1035.2 mb 0.00 in0.0 mm 0.00 in0.0 mm 0.00 in0.0 mm
05:55 AM 5.9°F-14.5°C -1.4°F-18.6°C 71% 5.0 mph SSE8.0 kmh SSE 6.0 mph9.7 kmh 30.56 in1034.9 mb 0.00 in0.0 mm 0.00 in0.0 mm 0.00 in0.0 mm
05:50 AM 5.9°F-14.5°C -1.4°F-18.6°C 71% 5.0 mph ESE8.0 kmh ESE 7.0 mph11.3 kmh 30.56 in1034.9 mb 0.00 in0.0 mm 0.00 in0.0 mm 0.00 in0.0 mm
05:45 AM 6.1°F-14.4°C -1.3°F-18.5°C 71% 5.0 mph SSE8.0 kmh SSE 6.0 mph9.7 kmh 30.56 in1034.9 mb 0.00 in0.0 mm 0.00 in0.0 mm 0.00 in0.0 mm
05:40 AM 6.1°F-14.4°C -1.3°F-18.5°C 71% 5.0 mph SSE8.0 kmh SSE 6.0 mph9.7 kmh 30.56 in1034.9 mb 0.00 in0.0 mm 0.00 in0.0 mm 0.00 in0.0 mm
05:35 AM 6.3°F-14.3°C -0.8°F-18.2°C 72% 3.0 mph WSW4.8 kmh WSW 6.0 mph9.7 kmh 30.55 in1034.5 mb 0.00 in0.0 mm 0.00 in0.0 mm 0.00 in0.0 mm
05:30 AM 6.4°F-14.2°C -0.7°F-18.2°C 72% 6.0 mph SE9.7 kmh SE 6.0 mph9.7 kmh 30.55 in1034.5 mb 0.00 in0.0 mm 0.00 in0.0 mm 0.00 in0.0 mm
05:25 AM 6.4°F-14.2°C -0.7°F-18.2°C 72% 5.0 mph SSE8.0 kmh SSE 6.0 mph9.7 kmh 30.55 in1034.5 mb 0.00 in0.0 mm 0.00 in0.0 mm 0.00 in0.0 mm
05:20 AM 6.6°F-14.1°C -0.5°F-18.1°C 72% 2.0 mph WSW3.2 kmh WSW 6.0 mph9.7 kmh 30.54 in1034.2 mb 0.00 in0.0 mm 0.00 in0.0 mm 0.00 in0.0 mm
05:15 AM 6.6°F-14.1°C -0.5°F-18.1°C 72% 5.0 mph ESE8.0 kmh ESE 6.0 mph9.7 kmh 30.54 in1034.2 mb 0.00 in0.0 mm 0.00 in0.0 mm 0.00 in0.0 mm
05:10 AM 6.8°F-14.0°C -0.3°F-17.9°C 72% 4.0 mph SSE6.4 kmh SSE 5.0 mph8.0 kmh 30.53 in1033.9 mb 0.00 in0.0 mm 0.00 in0.0 mm 0.00 in0.0 mm
05:05 AM 7.2°F-13.8°C 0.1°F-17.7°C 72% 5.0 mph ESE8.0 kmh ESE 6.0 mph9.7 kmh 30.53 in1033.9 mb 0.00 in0.0 mm 0.00 in0.0 mm 0.00 in0.0 mm
05:00 AM 7.3°F-13.7°C 0.2°F-17.7°C 72% 5.0 mph SE8.0 kmh SE 6.0 mph9.7 kmh 30.53 in1033.9 mb 0.00 in0.0 mm 0.00 in0.0 mm 0.00 in0.0 mm
04:55 AM 7.3°F-13.7°C 0.2°F-17.7°C 72% 5.0 mph SE8.0 kmh SE 5.0 mph8.0 kmh 30.52 in1033.5 mb 0.00 in0.0 mm 0.00 in0.0 mm 0.00 in0.0 mm
04:50 AM 7.3°F-13.7°C 0.2°F-17.7°C 72% 2.0 mph S3.2 kmh S 7.0 mph11.3 kmh 30.52 in1033.5 mb 0.00 in0.0 mm 0.00 in0.0 mm 0.00 in0.0 mm
04:45 AM 7.5°F-13.6°C 0.7°F-17.4°C 73% 5.0 mph SE8.0 kmh SE 6.0 mph9.7 kmh 30.52 in1033.5 mb 0.00 in0.0 mm 0.00 in0.0 mm 0.00 in0.0 mm
04:40 AM 7.5°F-13.6°C 0.7°F-17.4°C 73% 3.0 mph ESE4.8 kmh ESE 6.0 mph9.7 kmh 30.52 in1033.5 mb 0.00 in0.0 mm 0.00 in0.0 mm 0.00 in0.0 mm
04:35 AM 7.7°F-13.5°C 0.6°F-17.4°C 72% 3.0 mph SE4.8 kmh SE 6.0 mph9.7 kmh 30.52 in1033.5 mb 0.00 in0.0 mm 0.00 in0.0 mm 0.00 in0.0 mm
04:30 AM 8.1°F-13.3°C 1.0°F-17.2°C 72% 6.0 mph ESE9.7 kmh ESE 7.0 mph11.3 kmh 30.51 in1033.2 mb 0.00 in0.0 mm 0.00 in0.0 mm 0.00 in0.0 mm
04:25 AM 8.2°F-13.2°C 1.1°F-17.2°C 72% 6.0 mph ESE9.7 kmh ESE 9.0 mph14.5 kmh 30.51 in1033.2 mb 0.00 in0.0 mm 0.00 in0.0 mm 0.00 in0.0 mm
04:20 AM 8.4°F-13.1°C 1.3°F-17.1°C 72% 2.0 mph WNW3.2 kmh WNW 6.0 mph9.7 kmh 30.50 in1032.8 mb 0.00 in0.0 mm 0.00 in0.0 mm 0.00 in0.0 mm
04:15 AM 8.6°F-13.0°C 1.2°F-17.1°C 71% 7.0 mph ESE11.3 kmh ESE 9.0 mph14.5 kmh 30.50 in1032.8 mb 0.00 in0.0 mm 0.00 in0.0 mm 0.00 in0.0 mm
04:10 AM 8.8°F-12.9°C 1.6°F-16.9°C 72% 7.0 mph SSE11.3 kmh SSE 11.0 mph17.7 kmh 30.49 in1032.5 mb 0.00 in0.0 mm 0.00 in0.0 mm 0.00 in0.0 mm
04:05 AM 9.0°F-12.8°C 1.8°F-16.8°C 72% 6.0 mph SE9.7 kmh SE 8.0 mph12.9 kmh 30.49 in1032.5 mb 0.00 in0.0 mm 0.00 in0.0 mm 0.00 in0.0 mm
04:00 AM 9.0°F-12.8°C 1.8°F-16.8°C 72% 6.0 mph SE9.7 kmh SE 8.0 mph12.9 kmh 30.49 in1032.5 mb 0.00 in0.0 mm 0.00 in0.0 mm 0.00 in0.0 mm
03:55 AM 9.0°F-12.8°C 1.8°F-16.8°C 72% 6.0 mph ESE9.7 kmh ESE 10.0 mph16.1 kmh 30.49 in1032.5 mb 0.00 in0.0 mm 0.00 in0.0 mm 0.00 in0.0 mm
03:50 AM 9.1°F-12.7°C 1.9°F-16.7°C 72% 7.0 mph ESE11.3 kmh ESE 8.0 mph12.9 kmh 30.48 in1032.2 mb 0.00 in0.0 mm 0.00 in0.0 mm 0.00 in0.0 mm
03:45 AM 9.3°F-12.6°C 2.1°F-16.6°C 72% 5.0 mph ESE8.0 kmh ESE 10.0 mph16.1 kmh 30.49 in1032.5 mb 0.00 in0.0 mm 0.00 in0.0 mm 0.00 in0.0 mm
03:40 AM 9.5°F-12.5°C 2.0°F-16.7°C 71% 8.0 mph ESE12.9 kmh ESE 9.0 mph14.5 kmh 30.48 in1032.2 mb 0.00 in0.0 mm 0.00 in0.0 mm 0.00 in0.0 mm
03:35 AM 9.7°F-12.4°C 2.2°F-16.6°C 71% 7.0 mph SE11.3 kmh SE 9.0 mph14.5 kmh 30.48 in1032.2 mb 0.00 in0.0 mm 0.00 in0.0 mm 0.00 in0.0 mm
03:30 AM 9.9°F-12.3°C 2.7°F-16.3°C 72% 10.0 mph ESE16.1 kmh ESE 10.0 mph16.1 kmh 30.48 in1032.2 mb 0.00 in0.0 mm 0.00 in0.0 mm 0.00 in0.0 mm
03:25 AM 10.0°F-12.2°C 2.8°F-16.2°C 72% 8.0 mph ESE12.9 kmh ESE 8.0 mph12.9 kmh 30.48 in1032.2 mb 0.00 in0.0 mm 0.00 in0.0 mm 0.00 in0.0 mm
03:20 AM 10.2°F-12.1°C 3.0°F-16.1°C 72% 6.0 mph SSE9.7 kmh SSE 7.0 mph11.3 kmh 30.47 in1031.8 mb 0.00 in0.0 mm 0.00 in0.0 mm 0.00 in0.0 mm
03:15 AM 10.4°F-12.0°C 2.6°F-16.3°C 70% 5.0 mph S8.0 kmh S 8.0 mph12.9 kmh 30.47 in1031.8 mb 0.00 in0.0 mm 0.00 in0.0 mm 0.00 in0.0 mm
03:10 AM 10.6°F-11.9°C 2.8°F-16.2°C 70% 9.0 mph SSE14.5 kmh SSE 10.0 mph16.1 kmh 30.47 in1031.8 mb 0.00 in0.0 mm 0.00 in0.0 mm 0.00 in0.0 mm
03:05 AM 10.8°F-11.8°C 3.3°F-15.9°C 71% 10.0 mph WNW16.1 kmh WNW 10.0 mph16.1 kmh 30.46 in1031.5 mb 0.00 in0.0 mm 0.00 in0.0 mm 0.00 in0.0 mm
03:00 AM 10.8°F-11.8°C 3.3°F-15.9°C 71% 3.0 mph SSE4.8 kmh SSE 8.0 mph12.9 kmh 30.46 in1031.5 mb 0.00 in0.0 mm 0.00 in0.0 mm 0.00 in0.0 mm
02:55 AM 10.9°F-11.7°C 3.7°F-15.7°C 72% 7.0 mph SSE11.3 kmh SSE 8.0 mph12.9 kmh 30.46 in1031.5 mb 0.00 in0.0 mm 0.00 in0.0 mm 0.00 in0.0 mm
02:50 AM 11.1°F-11.6°C 4.2°F-15.4°C 73% 6.0 mph SE9.7 kmh SE 7.0 mph11.3 kmh 30.46 in1031.5 mb 0.00 in0.0 mm 0.00 in0.0 mm 0.00 in0.0 mm
02:45 AM 11.3°F-11.5°C 4.4°F-15.3°C 73% 5.0 mph ESE8.0 kmh ESE 6.0 mph9.7 kmh 30.45 in1031.2 mb 0.00 in0.0 mm 0.00 in0.0 mm 0.00 in0.0 mm
02:40 AM 11.3°F-11.5°C 4.4°F-15.3°C 73% 4.0 mph ESE6.4 kmh ESE 6.0 mph9.7 kmh 30.44 in1030.8 mb 0.00 in0.0 mm 0.00 in0.0 mm 0.00 in0.0 mm
02:35 AM 11.5°F-11.4°C 4.6°F-15.2°C 73% 4.0 mph ESE6.4 kmh ESE 6.0 mph9.7 kmh 30.44 in1030.8 mb 0.00 in0.0 mm 0.00 in0.0 mm 0.00 in0.0 mm
02:30 AM 11.7°F-11.3°C 4.7°F-15.2°C 73% 4.0 mph ESE6.4 kmh ESE 5.0 mph8.0 kmh 30.44 in1030.8 mb 0.00 in0.0 mm 0.00 in0.0 mm 0.00 in0.0 mm
02:25 AM 11.7°F-11.3°C 4.7°F-15.2°C 73% 5.0 mph ESE8.0 kmh ESE 6.0 mph9.7 kmh 30.43 in1030.5 mb 0.00 in0.0 mm 0.00 in0.0 mm 0.00 in0.0 mm
02:20 AM 11.8°F-11.2°C 4.5°F-15.3°C 72% 3.0 mph S4.8 kmh S 7.0 mph11.3 kmh 30.43 in1030.5 mb 0.00 in0.0 mm 0.00 in0.0 mm 0.00 in0.0 mm
02:15 AM 12.0°F-11.1°C 4.7°F-15.2°C 72% 4.0 mph SE6.4 kmh SE 6.0 mph9.7 kmh 30.42 in1030.1 mb 0.00 in0.0 mm 0.00 in0.0 mm 0.00 in0.0 mm
02:10 AM 12.0°F-11.1°C 5.0°F-15.0°C 73% 5.0 mph S8.0 kmh S 7.0 mph11.3 kmh 30.42 in1030.1 mb 0.00 in0.0 mm 0.00 in0.0 mm 0.00 in0.0 mm
02:05 AM 12.4°F-10.9°C 5.4°F-14.8°C 73% 7.0 mph SE11.3 kmh SE 7.0 mph11.3 kmh 30.41 in1029.8 mb 0.00 in0.0 mm 0.00 in0.0 mm 0.00 in0.0 mm
02:00 AM 12.6°F-10.8°C 5.3°F-14.8°C 72% 4.0 mph S6.4 kmh S 7.0 mph11.3 kmh 30.40 in1029.5 mb 0.00 in0.0 mm 0.00 in0.0 mm 0.00 in0.0 mm
01:55 AM 12.6°F-10.8°C 5.3°F-14.8°C 72% 5.0 mph E8.0 kmh E 7.0 mph11.3 kmh 30.40 in1029.5 mb 0.00 in0.0 mm 0.00 in0.0 mm 0.00 in0.0 mm
01:50 AM 12.6°F-10.8°C 5.3°F-14.8°C 72% 5.0 mph S8.0 kmh S 6.0 mph9.7 kmh 30.39 in1029.1 mb 0.00 in0.0 mm 0.00 in0.0 mm 0.00 in0.0 mm
01:45 AM 12.7°F-10.7°C 5.4°F-14.8°C 72% 5.0 mph W8.0 kmh W 7.0 mph11.3 kmh 30.39 in1029.1 mb 0.00 in0.0 mm 0.00 in0.0 mm 0.00 in0.0 mm
01:40 AM 12.9°F-10.6°C 5.9°F-14.5°C 73% 6.0 mph SSW9.7 kmh SSW 6.0 mph9.7 kmh 30.39 in1029.1 mb 0.00 in0.0 mm 0.00 in0.0 mm 0.00 in0.0 mm
01:35 AM 13.3°F-10.4°C 6.3°F-14.3°C 73% 3.0 mph ESE4.8 kmh ESE 7.0 mph11.3 kmh 30.38 in1028.8 mb 0.00 in0.0 mm 0.00 in0.0 mm 0.00 in0.0 mm
01:30 AM 13.5°F-10.3°C 6.5°F-14.2°C 73% 4.0 mph SE6.4 kmh SE 6.0 mph9.7 kmh 30.38 in1028.8 mb 0.00 in0.0 mm 0.00 in0.0 mm 0.00 in0.0 mm
01:25 AM 13.6°F-10.2°C 6.6°F-14.1°C 73% 5.0 mph WSW8.0 kmh WSW 6.0 mph9.7 kmh 30.38 in1028.8 mb 0.00 in0.0 mm 0.00 in0.0 mm 0.00 in0.0 mm
01:20 AM 13.6°F-10.2°C 6.6°F-14.1°C 73% 7.0 mph SE11.3 kmh SE 7.0 mph11.3 kmh 30.37 in1028.4 mb 0.00 in0.0 mm 0.00 in0.0 mm 0.00 in0.0 mm
01:15 AM 13.8°F-10.1°C 7.1°F-13.8°C 74% 3.0 mph ESE4.8 kmh ESE 6.0 mph9.7 kmh 30.37 in1028.4 mb 0.00 in0.0 mm 0.00 in0.0 mm 0.00 in0.0 mm
01:10 AM 13.8°F-10.1°C 7.1°F-13.8°C 74% 4.0 mph ESE6.4 kmh ESE 6.0 mph9.7 kmh 30.36 in1028.1 mb 0.00 in0.0 mm 0.00 in0.0 mm 0.00 in0.0 mm
01:05 AM 14.0°F-10.0°C 7.3°F-13.7°C 74% 2.0 mph SE3.2 kmh SE 6.0 mph9.7 kmh 30.36 in1028.1 mb 0.00 in0.0 mm 0.00 in0.0 mm 0.00 in0.0 mm
01:00 AM 14.2°F-9.9°C 7.5°F-13.6°C 74% 2.0 mph S3.2 kmh S 6.0 mph9.7 kmh 30.36 in1028.1 mb 0.00 in0.0 mm 0.00 in0.0 mm 0.00 in0.0 mm
12:55 AM 14.2°F-9.9°C 7.5°F-13.6°C 74% 3.0 mph ESE4.8 kmh ESE 8.0 mph12.9 kmh 30.35 in1027.8 mb 0.00 in0.0 mm 0.00 in0.0 mm 0.00 in0.0 mm
12:50 AM 14.2°F-9.9°C 7.2°F-13.8°C 73% 5.0 mph ESE8.0 kmh ESE 6.0 mph9.7 kmh 30.34 in1027.4 mb 0.00 in0.0 mm 0.00 in0.0 mm 0.00 in0.0 mm
12:45 AM 14.4°F-9.8°C 7.1°F-13.8°C 72% 6.0 mph SE9.7 kmh SE 7.0 mph11.3 kmh 30.34 in1027.4 mb 0.00 in0.0 mm 0.00 in0.0 mm 0.00 in0.0 mm
12:40 AM 14.5°F-9.7°C 7.1°F-13.8°C 72% 9.0 mph E14.5 kmh E 9.0 mph14.5 kmh 30.34 in1027.4 mb 0.00 in0.0 mm 0.00 in0.0 mm 0.00 in0.0 mm
12:35 AM 14.5°F-9.7°C 7.5°F-13.6°C 73% 7.0 mph SSE11.3 kmh SSE 8.0 mph12.9 kmh 30.33 in1027.1 mb 0.00 in0.0 mm 0.00 in0.0 mm 0.00 in0.0 mm
12:30 AM 14.7°F-9.6°C 7.6°F-13.6°C 73% 7.0 mph ESE11.3 kmh ESE 7.0 mph11.3 kmh 30.33 in1027.1 mb 0.00 in0.0 mm 0.00 in0.0 mm 0.00 in0.0 mm
12:25 AM 14.9°F-9.5°C 7.5°F-13.6°C 72% 4.0 mph S6.4 kmh S 8.0 mph12.9 kmh 30.33 in1027.1 mb 0.00 in0.0 mm 0.00 in0.0 mm 0.00 in0.0 mm
12:20 AM 15.8°F-9.0°C 8.7°F-12.9°C 73% 5.0 mph ESE8.0 kmh ESE 5.0 mph8.0 kmh 30.33 in1027.1 mb 0.00 in0.0 mm 0.00 in0.0 mm 0.00 in0.0 mm